createdAt,value
2022-08-23T00:00:12.897Z,2.83
2022-08-23T00:03:03.522Z,2.70
2022-08-23T00:05:55.759Z,2.60
2022-08-23T00:08:48.571Z,2.45
2022-08-23T00:11:51.415Z,2.83
2022-08-23T00:14:48.669Z,3.28
2022-08-23T00:17:39.554Z,2.75
2022-08-23T00:20:29.878Z,2.80
2022-08-23T00:23:19.981Z,3.08
2022-08-23T00:26:09.871Z,2.65
2022-08-23T00:28:59.955Z,2.83
2022-08-23T00:31:50.591Z,2.70
2022-08-23T00:34:41.083Z,2.75
2022-08-23T00:37:32.682Z,2.78
2022-08-23T00:40:23.425Z,2.78
2022-08-23T00:43:35.343Z,3.00
2022-08-23T00:47:03.442Z,2.65
2022-08-23T00:50:23.552Z,2.70
2022-08-23T00:53:20.334Z,2.45
2022-08-23T00:56:13.272Z,2.50
2022-08-23T00:59:03.817Z,3.22
2022-08-23T01:01:54.885Z,3.50
2022-08-23T01:04:52.251Z,3.85
2022-08-23T01:07:56.032Z,3.85
2022-08-23T01:10:52.517Z,4.28
2022-08-23T01:13:54.847Z,3.22
2022-08-23T01:16:54.250Z,3.40
2022-08-23T01:19:50.930Z,3.13
2022-08-23T01:22:59.266Z,2.80
2022-08-23T01:25:50.135Z,3.03
2022-08-23T01:28:41.201Z,3.05
2022-08-23T01:31:36.933Z,2.80
2022-08-23T01:34:28.712Z,3.00
2022-08-23T01:37:21.168Z,2.75
2022-08-23T01:40:12.921Z,2.85
2022-08-23T01:43:05.185Z,2.95
2022-08-23T01:45:55.717Z,2.72
2022-08-23T01:48:49.567Z,3.05
2022-08-23T01:51:39.875Z,2.75
2022-08-23T01:54:31.337Z,2.90
2022-08-23T01:57:22.009Z,3.15
2022-08-23T02:00:13.623Z,3.22
2022-08-23T02:03:06.449Z,3.05
2022-08-23T02:05:57.548Z,3.60
2022-08-23T02:09:03.969Z,3.15
2022-08-23T02:11:57.831Z,3.50
2022-08-23T02:14:48.750Z,3.33
2022-08-23T02:17:44.494Z,3.92
2022-08-23T02:20:34.894Z,3.33
2022-08-23T02:23:27.339Z,3.42
2022-08-23T02:26:18.451Z,3.28
2022-08-23T02:29:10.046Z,3.05
2022-08-23T02:32:01.721Z,3.60
2022-08-23T02:38:05.141Z,3.10
2022-08-23T02:41:00.921Z,3.75
2022-08-23T02:43:53.556Z,3.60
2022-08-23T02:46:46.057Z,3.60
2022-08-23T02:49:37.106Z,3.60
2022-08-23T02:52:27.624Z,4.18
2022-08-23T02:55:18.578Z,3.88
2022-08-23T02:58:08.787Z,3.65
2022-08-23T03:00:59.658Z,3.65
2022-08-23T03:03:50.222Z,3.63
2022-08-23T03:06:40.806Z,3.85
2022-08-23T03:09:31.612Z,3.75
2022-08-23T03:12:22.042Z,3.40
2022-08-23T03:15:16.991Z,3.70
2022-08-23T03:18:08.600Z,3.75
2022-08-23T03:20:59.148Z,3.60
2022-08-23T03:23:50.148Z,3.78
2022-08-23T03:26:45.850Z,3.40
2022-08-23T03:29:38.400Z,3.40
2022-08-23T03:32:28.616Z,3.95
2022-08-23T03:35:19.074Z,3.88
2022-08-23T03:38:09.235Z,4.13
2022-08-23T03:41:00.875Z,3.40
2022-08-23T03:43:51.245Z,3.88
2022-08-23T03:46:42.254Z,3.97
2022-08-23T03:49:32.950Z,3.78
2022-08-23T03:52:23.199Z,4.38
2022-08-23T03:55:14.616Z,4.05
2022-08-23T03:58:07.761Z,4.20
2022-08-23T04:00:57.783Z,3.85
2022-08-23T04:03:48.539Z,4.38
2022-08-23T04:06:39.587Z,3.88
2022-08-23T04:09:30.179Z,4.22
2022-08-23T04:12:23.244Z,4.15
2022-08-23T04:15:13.707Z,3.80
2022-08-23T04:18:05.580Z,3.88
2022-08-23T04:20:58.426Z,4.40
2022-08-23T04:23:48.859Z,4.18
2022-08-23T04:26:40.418Z,3.95
2022-08-23T04:29:33.923Z,4.55
2022-08-23T04:35:19.256Z,4.05
2022-08-23T04:38:24.608Z,4.07
2022-08-23T04:41:36.225Z,4.50
2022-08-23T04:44:26.653Z,4.32
2022-08-23T04:47:19.210Z,4.10
2022-08-23T04:50:10.885Z,4.18
2022-08-23T04:53:20.033Z,4.40
2022-08-23T04:56:32.071Z,4.03
2022-08-23T04:59:22.640Z,4.30
2022-08-23T05:02:13.187Z,4.80
2022-08-23T05:05:03.915Z,3.75
2022-08-23T05:07:57.399Z,4.47
2022-08-23T05:10:47.801Z,3.92
2022-08-23T05:13:38.931Z,4.53
2022-08-23T05:16:31.612Z,3.90
2022-08-23T05:19:27.188Z,4.43
2022-08-23T05:22:17.595Z,4.10
2022-08-23T05:25:48.772Z,3.80
2022-08-23T05:28:44.790Z,4.45
2022-08-23T05:31:37.163Z,4.60
2022-08-23T05:34:27.599Z,5.13
2022-08-23T05:37:20.055Z,4.63
2022-08-23T05:40:10.968Z,4.68
2022-08-23T05:43:11.043Z,4.60
2022-08-23T05:46:12.686Z,4.40
2022-08-23T05:49:06.668Z,4.45
2022-08-23T05:51:56.908Z,4.57
2022-08-23T05:54:51.307Z,4.43
2022-08-23T05:58:07.469Z,4.15
2022-08-23T06:00:57.911Z,4.22
2022-08-23T06:03:49.369Z,3.90
2022-08-23T06:06:41.674Z,4.88
2022-08-23T06:09:32.719Z,4.30
2022-08-23T06:12:22.832Z,4.18
2022-08-23T06:15:13.798Z,4.00
2022-08-23T06:18:04.032Z,3.70
2022-08-23T06:21:06.043Z,3.65
2022-08-23T06:24:05.735Z,4.28
2022-08-23T06:26:55.906Z,3.78
2022-08-23T06:29:46.130Z,3.72
2022-08-23T06:33:05.604Z,3.85
2022-08-23T06:36:06.267Z,3.67
2022-08-23T06:39:17.802Z,3.50
2022-08-23T06:42:44.089Z,3.67
2022-08-23T06:45:35.215Z,4.15
2022-08-23T06:48:26.372Z,3.70
2022-08-23T06:51:26.457Z,3.42
2022-08-23T06:54:29.221Z,3.38
2022-08-23T06:57:38.395Z,3.38
2022-08-23T07:01:45.542Z,3.55
2022-08-23T07:04:43.495Z,3.53
2022-08-23T07:07:54.431Z,3.33
2022-08-23T07:10:44.499Z,2.95
2022-08-23T07:13:34.369Z,2.80
2022-08-23T07:16:25.714Z,2.70
2022-08-23T07:19:17.940Z,3.13
2022-08-23T07:22:08.483Z,2.58
2022-08-23T07:24:58.927Z,3.03
2022-08-23T07:27:49.871Z,3.10
2022-08-23T07:30:45.387Z,3.25
2022-08-23T07:33:38.397Z,2.70
2022-08-23T07:36:37.012Z,2.80
2022-08-23T07:39:27.947Z,2.67
2022-08-23T07:42:23.468Z,2.42
2022-08-23T07:45:17.926Z,2.83
2022-08-23T07:48:12.136Z,2.33
2022-08-23T07:51:22.068Z,2.17
2022-08-23T07:54:12.973Z,2.03
2022-08-23T07:57:21.494Z,2.30
2022-08-23T08:00:31.918Z,2.50
2022-08-23T08:03:33.945Z,2.50
2022-08-23T08:06:59.889Z,2.25
2022-08-23T08:09:56.730Z,2.72
2022-08-23T08:12:47.460Z,2.30
2022-08-23T08:15:42.344Z,2.17
2022-08-23T08:18:37.536Z,2.20
2022-08-23T08:21:47.211Z,2.58
2022-08-23T08:24:51.352Z,1.90
2022-08-23T08:27:42.783Z,2.20
2022-08-23T08:30:33.281Z,2.13
2022-08-23T08:33:30.637Z,1.88
2022-08-23T08:36:29.511Z,2.20
2022-08-23T08:39:26.454Z,2.08
2022-08-23T08:42:41.558Z,1.95
2022-08-23T08:45:53.504Z,2.30
2022-08-23T08:48:56.588Z,1.58
2022-08-23T08:52:01.861Z,2.17
2022-08-23T08:55:10.590Z,2.30
2022-08-23T08:58:02.360Z,2.20
2022-08-23T09:00:56.483Z,1.70
2022-08-23T09:03:48.436Z,1.95
2022-08-23T09:07:11.143Z,1.95
2022-08-23T09:10:16.797Z,1.90
2022-08-23T09:13:35.905Z,2.38
2022-08-23T09:16:54.217Z,1.88
2022-08-23T09:19:48.347Z,2.25
2022-08-23T09:22:46.088Z,2.28
2022-08-23T09:26:03.835Z,2.25
2022-08-23T09:29:11.242Z,1.60
2022-08-23T09:32:06.679Z,2.00
2022-08-23T09:35:13.096Z,2.00
2022-08-23T09:38:21.560Z,1.90
2022-08-23T09:41:20.246Z,1.88
2022-08-23T09:44:32.656Z,1.67
2022-08-23T09:47:43.324Z,2.20
2022-08-23T09:50:45.467Z,1.63
2022-08-23T09:53:41.010Z,1.70
2022-08-23T09:56:39.220Z,1.67
2022-08-23T09:59:47.439Z,1.58
2022-08-23T10:02:43.022Z,1.58
2022-08-23T10:05:41.248Z,1.50
2022-08-23T10:08:52.024Z,1.42
2022-08-23T10:11:45.915Z,1.40
2022-08-23T10:14:36.526Z,1.70
2022-08-23T10:17:37.760Z,1.60
2022-08-23T10:20:38.963Z,1.70
2022-08-23T10:23:42.146Z,1.50
2022-08-23T10:26:39.297Z,1.60
2022-08-23T10:29:40.986Z,1.77
2022-08-23T10:32:41.540Z,1.20
2022-08-23T10:36:03.349Z,1.48
2022-08-23T10:38:59.101Z,1.38
2022-08-23T10:42:04.731Z,1.38
2022-08-23T10:45:22.551Z,1.55
2022-08-23T10:48:30.446Z,1.85
2022-08-23T10:51:32.048Z,1.50
2022-08-23T10:54:46.115Z,1.70
2022-08-23T10:57:41.649Z,1.30
2022-08-23T11:00:34.432Z,1.53
2022-08-23T11:03:33.623Z,1.70
2022-08-23T11:06:36.699Z,1.42
2022-08-23T11:09:38.590Z,1.50
2022-08-23T11:13:06.312Z,1.50
2022-08-23T11:16:14.180Z,1.52
2022-08-23T11:19:23.072Z,1.60
2022-08-23T11:22:32.536Z,1.70
2022-08-23T11:25:24.785Z,1.50
2022-08-23T11:28:22.151Z,1.40
2022-08-23T11:31:21.259Z,1.33
2022-08-23T11:34:27.296Z,1.55
2022-08-23T11:37:29.980Z,1.73
2022-08-23T11:40:41.797Z,1.40
2022-08-23T11:43:40.272Z,1.38
2022-08-23T11:46:34.951Z,1.60
2022-08-23T11:49:55.268Z,1.60
2022-08-23T11:56:09.833Z,1.48
2022-08-23T11:59:22.439Z,1.50
2022-08-23T12:02:39.756Z,1.30
2022-08-23T12:05:39.131Z,1.60
2022-08-23T12:08:44.784Z,1.80
2022-08-23T12:11:56.449Z,1.73
2022-08-23T12:14:46.604Z,1.35
2022-08-23T12:17:40.315Z,1.27
2022-08-23T12:20:32.244Z,1.30
2022-08-23T12:23:22.539Z,1.60
2022-08-23T12:26:26.973Z,1.60
2022-08-23T12:29:29.916Z,1.52
2022-08-23T12:32:34.988Z,1.73
2022-08-23T12:35:49.128Z,1.70
2022-08-23T12:38:39.665Z,1.58
2022-08-23T12:41:35.243Z,1.67
2022-08-23T12:44:28.088Z,1.50
2022-08-23T12:47:21.967Z,1.58
2022-08-23T12:50:15.281Z,1.40
2022-08-23T12:53:13.638Z,1.90
2022-08-23T12:56:11.342Z,1.65
2022-08-23T12:59:07.521Z,1.40
2022-08-23T13:01:58.690Z,1.52
2022-08-23T13:04:52.001Z,1.70
2022-08-23T13:07:42.164Z,1.70
2022-08-23T13:10:33.006Z,1.55
2022-08-23T13:13:25.805Z,1.45
2022-08-23T13:16:43.600Z,1.77
2022-08-23T13:19:34.076Z,1.50
2022-08-23T13:22:26.016Z,1.77
2022-08-23T13:25:34.881Z,1.65
2022-08-23T13:28:31.144Z,1.60
2022-08-23T13:31:21.492Z,1.83
2022-08-23T13:34:11.653Z,1.80
2022-08-23T13:37:05.035Z,1.70
2022-08-23T13:40:25.566Z,1.65
2022-08-23T13:43:25.220Z,1.60
2022-08-23T13:46:22.863Z,1.80
2022-08-23T13:49:20.311Z,1.80
2022-08-23T13:55:22.524Z,2.08
2022-08-23T13:58:17.315Z,1.50
2022-08-23T14:01:17.145Z,1.80
2022-08-23T14:04:07.834Z,1.70
2022-08-23T14:06:57.875Z,1.30
2022-08-23T14:09:51.983Z,1.70
2022-08-23T14:12:46.917Z,1.63
2022-08-23T14:22:00.135Z,1.70
2022-08-23T14:24:50.317Z,1.60
2022-08-23T14:27:42.996Z,1.92
2022-08-23T14:30:36.136Z,1.70
2022-08-23T14:33:26.241Z,1.70
2022-08-23T14:36:17.001Z,1.50
2022-08-23T14:39:07.310Z,1.80
2022-08-23T14:41:59.266Z,1.80
2022-08-23T14:44:49.982Z,1.60
2022-08-23T14:47:41.129Z,1.83
2022-08-23T14:50:31.262Z,1.70
2022-08-23T14:53:26.884Z,1.65
2022-08-23T14:56:21.454Z,1.58
2022-08-23T14:59:12.359Z,1.58
2022-08-23T15:02:04.063Z,1.83
2022-08-23T15:04:55.802Z,1.75
2022-08-23T15:07:46.240Z,1.90
2022-08-23T15:12:55.388Z,1.63
2022-08-23T15:13:55.585Z,1.80
2022-08-23T15:16:46.667Z,1.70
2022-08-23T15:19:36.920Z,1.80
2022-08-23T15:22:30.106Z,1.63
2022-08-23T15:25:20.760Z,1.83
2022-08-23T15:28:14.318Z,1.75
2022-08-23T15:31:04.947Z,1.55
2022-08-23T15:33:55.025Z,1.70
2022-08-23T15:36:45.264Z,1.70
2022-08-23T15:39:35.565Z,1.90
2022-08-23T15:42:26.297Z,1.80
2022-08-23T15:45:16.771Z,1.42
2022-08-23T15:48:16.315Z,1.63
2022-08-23T15:51:06.426Z,1.77
2022-08-23T15:53:56.648Z,1.75
2022-08-23T15:56:50.228Z,1.95
2022-08-23T15:59:40.608Z,1.83
2022-08-23T16:02:41.232Z,1.70
2022-08-23T16:05:43.792Z,1.85
2022-08-23T16:08:38.151Z,1.67
2022-08-23T16:11:28.598Z,1.70
2022-08-23T16:14:18.663Z,1.38
2022-08-23T16:17:09.419Z,1.80
2022-08-23T16:20:02.954Z,1.90
2022-08-23T16:22:53.184Z,1.70
2022-08-23T16:25:43.632Z,1.80
2022-08-23T16:28:34.072Z,1.60
2022-08-23T16:31:38.283Z,1.65
2022-08-23T16:34:29.708Z,1.40
2022-08-23T16:37:20.775Z,2.03
2022-08-23T16:40:12.295Z,2.25
2022-08-23T16:43:02.754Z,1.77
2022-08-23T16:45:53.195Z,1.65
2022-08-23T16:48:45.005Z,1.50
2022-08-23T16:51:35.528Z,1.83
2022-08-23T16:54:26.299Z,2.10
2022-08-23T16:57:17.631Z,1.70
2022-08-23T17:00:11.705Z,1.45
2022-08-23T17:03:06.063Z,1.77
2022-08-23T17:05:56.256Z,2.08
2022-08-23T17:08:46.780Z,1.83
2022-08-23T17:11:43.893Z,1.80
2022-08-23T17:14:33.891Z,2.22
2022-08-23T17:17:25.075Z,3.97
2022-08-23T17:20:15.978Z,1.80
2022-08-23T17:23:08.035Z,1.83
2022-08-23T17:25:58.043Z,1.77
2022-08-23T17:28:48.780Z,1.77
2022-08-23T17:31:39.380Z,1.95
2022-08-23T17:34:29.417Z,2.05
2022-08-23T17:37:21.476Z,2.38
2022-08-23T17:40:16.361Z,2.20
2022-08-23T17:43:12.501Z,1.60
2022-08-23T17:46:02.949Z,1.73
2022-08-23T17:48:53.336Z,1.65
2022-08-23T17:51:44.268Z,2.00
2022-08-23T17:54:34.998Z,3.70
2022-08-23T17:57:25.774Z,3.92
2022-08-23T18:00:18.217Z,2.33
2022-08-23T18:03:08.278Z,2.13
2022-08-23T18:05:58.853Z,1.92
2022-08-23T18:08:48.932Z,2.13
2022-08-23T18:11:39.057Z,1.98
2022-08-23T18:14:29.498Z,2.10
2022-08-23T18:17:19.624Z,2.35
2022-08-23T18:20:10.723Z,1.70
2022-08-23T18:23:01.100Z,1.80
2022-08-23T18:25:51.369Z,2.05
2022-08-23T18:28:41.686Z,2.10
2022-08-23T18:31:32.420Z,1.90
2022-08-23T18:34:22.938Z,1.63
2022-08-23T18:37:16.848Z,2.20
2022-08-23T18:40:10.530Z,2.22
2022-08-23T18:43:00.829Z,3.00
2022-08-23T18:45:53.744Z,2.10
2022-08-23T18:48:53.182Z,1.60
2022-08-23T18:51:44.022Z,2.13
2022-08-23T18:54:34.775Z,2.20
2022-08-23T18:57:25.107Z,2.20
2022-08-23T19:00:15.539Z,1.90
2022-08-23T19:03:06.572Z,2.20
2022-08-23T19:05:58.867Z,1.77
2022-08-23T19:08:49.030Z,1.88
2022-08-23T19:11:39.723Z,1.90
2022-08-23T19:14:30.065Z,2.20
2022-08-23T19:17:20.036Z,2.63
2022-08-23T19:20:11.201Z,1.83
2022-08-23T19:23:01.619Z,2.90
2022-08-23T19:25:52.134Z,2.30
2022-08-23T19:28:42.761Z,1.70
2022-08-23T19:31:38.355Z,1.90
2022-08-23T19:34:31.319Z,2.40
2022-08-23T19:37:22.919Z,1.98
2022-08-23T19:40:14.414Z,2.40
2022-08-23T19:43:05.318Z,2.30
2022-08-23T19:45:55.919Z,1.90
2022-08-23T19:48:47.343Z,2.20
2022-08-23T19:51:38.041Z,1.95
2022-08-23T19:54:28.277Z,2.30
2022-08-23T19:57:18.769Z,2.45
2022-08-23T20:00:19.275Z,2.22
2022-08-23T20:03:10.286Z,2.05
2022-08-23T20:06:00.403Z,2.65
2022-08-23T20:08:50.915Z,2.10
2022-08-23T20:11:41.467Z,2.40
2022-08-23T20:14:33.067Z,2.33
2022-08-23T20:17:23.178Z,2.28
2022-08-23T20:20:13.864Z,3.10
2022-08-23T20:23:22.715Z,2.80
2022-08-23T20:26:12.835Z,2.90
2022-08-23T20:29:04.857Z,2.50
2022-08-23T20:31:59.620Z,2.30
2022-08-23T20:34:49.580Z,2.58
2022-08-23T20:37:40.260Z,2.20
2022-08-23T20:40:30.574Z,2.67
2022-08-23T20:43:21.124Z,2.63
2022-08-23T20:46:11.349Z,2.50
2022-08-23T20:49:01.927Z,2.47
2022-08-23T20:51:52.140Z,4.65
2022-08-23T20:54:42.279Z,2.80
2022-08-23T20:57:38.243Z,2.70
2022-08-23T21:00:29.016Z,2.50
2022-08-23T21:03:19.561Z,2.55
2022-08-23T21:06:35.989Z,2.78
2022-08-23T21:09:28.951Z,2.88
2022-08-23T21:12:19.922Z,3.20
2022-08-23T21:15:11.211Z,2.63
2022-08-23T21:18:01.616Z,2.50
2022-08-23T21:20:52.061Z,2.97
2022-08-23T21:23:42.522Z,2.75
2022-08-23T21:26:34.398Z,2.53
2022-08-23T21:29:24.501Z,3.17
2022-08-23T21:32:15.800Z,2.75
2022-08-23T21:35:07.225Z,2.63
2022-08-23T21:37:57.287Z,3.08
2022-08-23T21:40:58.125Z,2.95
2022-08-23T21:43:48.511Z,2.70
2022-08-23T21:46:38.969Z,3.22
2022-08-23T21:49:29.523Z,3.15
2022-08-23T21:52:19.866Z,3.00
2022-08-23T21:55:10.172Z,2.70
2022-08-23T21:58:00.877Z,3.17
2022-08-23T22:00:51.189Z,3.42
2022-08-23T22:03:41.392Z,3.10
2022-08-23T22:06:32.125Z,3.30
2022-08-23T22:09:27.423Z,3.33
2022-08-23T22:12:24.887Z,3.20
2022-08-23T22:15:16.331Z,3.17
2022-08-23T22:18:07.820Z,2.83
2022-08-23T22:20:58.909Z,3.13
2022-08-23T22:23:49.328Z,3.03
2022-08-23T22:26:41.854Z,3.20
2022-08-23T22:29:32.295Z,3.25
2022-08-23T22:32:22.812Z,3.33
2022-08-23T22:35:13.668Z,2.88
2022-08-23T22:38:13.733Z,3.53
2022-08-23T22:41:05.432Z,3.42
2022-08-23T22:44:01.162Z,3.30
2022-08-23T22:46:51.526Z,3.53
2022-08-23T22:49:41.523Z,3.63
2022-08-23T22:52:31.825Z,3.40
2022-08-23T22:55:21.792Z,3.00
2022-08-23T22:58:12.175Z,3.47
2022-08-23T23:01:07.072Z,3.30
2022-08-23T23:04:02.812Z,3.65
2022-08-23T23:06:54.685Z,3.65
2022-08-23T23:09:44.757Z,3.60
2022-08-23T23:12:34.752Z,3.40
2022-08-23T23:15:25.452Z,3.30
2022-08-23T23:18:15.981Z,3.65
2022-08-23T23:21:07.800Z,4.10
2022-08-23T23:23:57.665Z,4.40
2022-08-23T23:26:48.272Z,3.58
2022-08-23T23:29:38.472Z,3.60
2022-08-23T23:32:28.613Z,3.97
2022-08-23T23:35:19.166Z,4.10
2022-08-23T23:38:10.266Z,3.90
2022-08-23T23:41:05.055Z,4.32
2022-08-23T23:43:55.629Z,4.28
2022-08-23T23:46:49.624Z,4.45
2022-08-23T23:49:39.959Z,3.95
2022-08-23T23:52:29.813Z,4.60
2022-08-23T23:55:21.861Z,4.10
2022-08-23T23:58:12.561Z,4.43
